createdAt,value
2023-10-07T00:00:33.468Z,99321.22
2023-10-07T00:01:49.259Z,99318.13
2023-10-07T00:02:57.190Z,99324.41
2023-10-07T00:04:06.489Z,99328.28
2023-10-07T00:05:20.064Z,99320.50
2023-10-07T00:06:48.759Z,99318.13
2023-10-07T00:08:03.986Z,99318.56
2023-10-07T00:09:12.867Z,99311.06
2023-10-07T00:10:27.833Z,99322.03
2023-10-07T00:11:38.808Z,99317.00
2023-10-07T00:12:47.065Z,99315.75
2023-10-07T00:13:57.388Z,99310.63
2023-10-07T00:15:12.979Z,99308.63
2023-10-07T00:16:29.947Z,99310.91
2023-10-07T00:17:41.487Z,99312.78
2023-10-07T00:18:56.653Z,99312.59
2023-10-07T00:20:12.400Z,99304.72
2023-10-07T00:21:18.041Z,99307.03
2023-10-07T00:22:29.639Z,99301.13
2023-10-07T00:23:36.814Z,99310.91
2023-10-07T00:25:04.226Z,99305.34
2023-10-07T00:27:49.443Z,99308.19
2023-10-07T00:29:10.149Z,99300.84
2023-10-07T00:30:24.083Z,99300.94
2023-10-07T00:31:34.205Z,99297.06
2023-10-07T00:32:40.042Z,99295.00
2023-10-07T00:34:14.125Z,99292.59
2023-10-07T00:35:18.244Z,99301.97
2023-10-07T00:36:43.333Z,99297.06
2023-10-07T00:37:58.419Z,99292.50
2023-10-07T00:39:11.930Z,99294.19
2023-10-07T00:40:23.573Z,99295.75
2023-10-07T00:42:10.897Z,99294.91
2023-10-07T00:43:31.013Z,99296.03
2023-10-07T00:44:55.481Z,99290.56
2023-10-07T00:46:32.097Z,99301.16
2023-10-07T00:48:14.170Z,99302.50
2023-10-07T00:49:31.414Z,99298.63
2023-10-07T00:52:59.635Z,99290.84
2023-10-07T00:54:24.523Z,99289.97
2023-10-07T00:55:47.900Z,99281.34
2023-10-07T00:59:20.173Z,99276.03
2023-10-07T01:01:29.533Z,99274.69
2023-10-07T01:03:11.953Z,99273.91
2023-10-07T01:04:53.752Z,99267.91
2023-10-07T01:06:33.033Z,99264.84
2023-10-07T01:08:17.148Z,99263.09
2023-10-07T01:09:34.804Z,99260.09
2023-10-07T01:11:31.645Z,99249.06
2023-10-07T01:13:21.409Z,99260.91
2023-10-07T01:14:48.710Z,99250.66
2023-10-07T01:16:03.427Z,99244.50
2023-10-07T01:23:21.445Z,99228.03
2023-10-07T01:26:07.181Z,99234.00
2023-10-07T01:27:48.397Z,99223.00
2023-10-07T01:35:43.888Z,99223.72
2023-10-07T01:39:57.457Z,99226.00
2023-10-07T01:42:10.481Z,99226.63
2023-10-07T01:44:31.244Z,99228.19
2023-10-07T01:50:17.936Z,99208.56
2023-10-07T01:51:39.128Z,99214.03
2023-10-07T01:53:18.594Z,99218.69
2023-10-07T01:56:16.824Z,99209.25
2023-10-07T01:57:27.867Z,99212.44
2023-10-07T01:58:50.825Z,99215.97
2023-10-07T02:02:31.310Z,99195.34
2023-10-07T02:06:37.550Z,99202.94
2023-10-07T02:07:56.714Z,99192.19
2023-10-07T02:09:14.442Z,99194.03
2023-10-07T02:12:11.711Z,99188.63
2023-10-07T02:13:34.662Z,99183.13
2023-10-07T02:15:29.806Z,99185.75
2023-10-07T02:17:37.656Z,99175.78
2023-10-07T02:19:36.600Z,99173.06
2023-10-07T02:20:51.281Z,99169.97
2023-10-07T02:24:03.045Z,99180.81
2023-10-07T02:25:42.134Z,99182.59
2023-10-07T02:27:22.598Z,99179.50
2023-10-07T02:29:30.592Z,99179.56
2023-10-07T02:32:48.414Z,99178.06
2023-10-07T02:35:00.839Z,99174.47
2023-10-07T02:36:39.171Z,99161.25
2023-10-07T02:38:11.218Z,99167.13
2023-10-07T02:39:52.660Z,99170.31
2023-10-07T02:41:53.706Z,99173.50
2023-10-07T02:43:43.738Z,99169.38
2023-10-07T02:45:31.632Z,99155.28
2023-10-07T02:47:34.814Z,99166.28
2023-10-07T02:49:13.639Z,99166.97
2023-10-07T02:52:30.981Z,99157.38
2023-10-07T03:05:15.139Z,99148.59
2023-10-07T03:06:50.754Z,99161.22
2023-10-07T03:08:45.809Z,99154.75
2023-10-07T03:11:27.622Z,99156.09
2023-10-07T03:12:47.596Z,99141.91
2023-10-07T03:14:03.362Z,99135.75
2023-10-07T03:22:00.692Z,99113.31
2023-10-07T03:28:27.043Z,99098.47
2023-10-07T03:30:26.717Z,99093.25
2023-10-07T03:32:05.163Z,99088.69
2023-10-07T03:33:12.007Z,99075.13
2023-10-07T03:34:40.752Z,99069.44
2023-10-07T03:36:36.622Z,99072.94
2023-10-07T03:37:48.578Z,99056.28
2023-10-07T03:39:16.755Z,99057.16
2023-10-07T03:40:42.461Z,99047.66
2023-10-07T03:42:02.788Z,99045.63
2023-10-07T03:43:16.048Z,99046.06
2023-10-07T03:44:42.296Z,99042.28
2023-10-07T03:46:08.656Z,99038.31
2023-10-07T03:47:34.395Z,99037.75
2023-10-07T03:48:58.896Z,99030.41
2023-10-07T03:52:08.826Z,99034.09
2023-10-07T03:53:19.513Z,99034.56
2023-10-07T03:54:32.595Z,99035.53
2023-10-07T03:55:45.077Z,99028.53
2023-10-07T03:56:58.608Z,99020.06
2023-10-07T03:58:06.546Z,99022.50
2023-10-07T03:59:16.650Z,99014.00
2023-10-07T04:00:38.218Z,99005.31
2023-10-07T04:01:48.637Z,99003.56
2023-10-07T04:03:03.369Z,98998.47
2023-10-07T04:04:21.270Z,99000.91
2023-10-07T04:05:36.957Z,98995.50
2023-10-07T04:06:51.187Z,98998.63
2023-10-07T04:08:06.948Z,98993.09
2023-10-07T04:09:15.675Z,98994.81
2023-10-07T04:10:21.708Z,98990.63
2023-10-07T04:11:39.559Z,98995.25
2023-10-07T04:12:55.760Z,98991.94
2023-10-07T04:16:41.943Z,98985.72
2023-10-07T04:19:40.108Z,98979.28
2023-10-07T04:23:48.918Z,98964.63
2023-10-07T04:25:28.539Z,98970.28
2023-10-07T04:27:13.041Z,98951.56
2023-10-07T04:28:55.307Z,98960.06
2023-10-07T04:33:57.558Z,98940.75
2023-10-07T04:37:32.364Z,98927.47
2023-10-07T04:44:04.062Z,98918.22
2023-10-07T04:48:56.653Z,98902.91
2023-10-07T04:50:19.926Z,98905.91
2023-10-07T04:52:10.948Z,98908.66
2023-10-07T04:54:00.249Z,98904.69
2023-10-07T04:59:12.313Z,98894.22
2023-10-07T05:00:35.985Z,98883.31
2023-10-07T05:02:17.475Z,98880.03
2023-10-07T05:03:52.448Z,98878.47
2023-10-07T05:05:22.553Z,98874.03
2023-10-07T05:06:30.767Z,98874.97
2023-10-07T05:07:55.903Z,98868.28
2023-10-07T05:11:42.724Z,98867.88
2023-10-07T05:13:08.188Z,98859.19
2023-10-07T05:14:47.869Z,98861.88
2023-10-07T05:16:41.543Z,98857.72
2023-10-07T05:17:57.865Z,98850.03
2023-10-07T05:19:26.302Z,98845.28
2023-10-07T05:20:39.083Z,98847.25
2023-10-07T05:21:50.894Z,98833.38
2023-10-07T05:22:53.340Z,98837.25
2023-10-07T05:23:56.299Z,98827.13
2023-10-07T05:25:04.144Z,98832.94
2023-10-07T05:26:18.657Z,98822.94
2023-10-07T05:27:22.334Z,98818.63
2023-10-07T05:28:26.367Z,98817.44
2023-10-07T05:29:30.101Z,98810.47
2023-10-07T05:30:33.820Z,98808.22
2023-10-07T05:31:40.512Z,98808.94
2023-10-07T05:32:47.270Z,98802.75
2023-10-07T05:33:50.651Z,98811.75
2023-10-07T05:34:58.591Z,98804.50
2023-10-07T05:36:15.660Z,98791.69
2023-10-07T05:37:18.671Z,98792.84
2023-10-07T05:38:21.846Z,98794.44
2023-10-07T05:39:27.854Z,98789.22
2023-10-07T05:40:30.766Z,98787.22
2023-10-07T05:41:33.390Z,98777.75
2023-10-07T05:42:39.939Z,98775.72
2023-10-07T05:43:44.843Z,98777.34
2023-10-07T05:44:52.102Z,98775.09
2023-10-07T05:45:56.152Z,98774.22
2023-10-07T05:47:04.370Z,98765.50
2023-10-07T05:48:09.245Z,98756.81
2023-10-07T05:49:11.868Z,98760.91
2023-10-07T05:50:15.875Z,98747.28
2023-10-07T05:51:18.140Z,98743.75
2023-10-07T05:52:20.983Z,98740.59
2023-10-07T05:53:23.155Z,98734.25
2023-10-07T05:54:29.449Z,98730.41
2023-10-07T05:55:34.846Z,98726.44
2023-10-07T05:56:36.904Z,98725.31
2023-10-07T05:57:39.495Z,98722.66
2023-10-07T05:58:42.353Z,98718.78
2023-10-07T05:59:44.312Z,98716.47
2023-10-07T06:00:46.862Z,98714.75
2023-10-07T06:01:50.460Z,98713.16
2023-10-07T06:02:56.780Z,98712.38
2023-10-07T06:04:02.046Z,98705.47
2023-10-07T06:05:06.855Z,98700.81
2023-10-07T06:06:08.757Z,98698.47
2023-10-07T06:07:21.948Z,98691.28
2023-10-07T06:08:33.571Z,98680.41
2023-10-07T06:09:43.197Z,98691.44
2023-10-07T06:10:53.312Z,98692.19
2023-10-07T06:11:56.437Z,98681.50
2023-10-07T06:12:58.410Z,98683.53
2023-10-07T06:14:00.747Z,98669.44
2023-10-07T06:15:09.521Z,98667.06
2023-10-07T06:16:15.398Z,98656.13
2023-10-07T06:17:18.392Z,98660.72
2023-10-07T06:18:22.627Z,98643.56
2023-10-07T06:19:26.028Z,98647.19
2023-10-07T06:20:28.517Z,98643.72
2023-10-07T06:21:37.222Z,98645.28
2023-10-07T06:22:40.421Z,98636.66
2023-10-07T06:23:43.529Z,98625.66
2023-10-07T06:24:48.700Z,98621.41
2023-10-07T06:25:51.660Z,98619.13
2023-10-07T06:26:56.244Z,98619.97
2023-10-07T06:28:09.925Z,98611.19
2023-10-07T06:30:59.825Z,98611.56
2023-10-07T06:32:33.819Z,98603.72
2023-10-07T06:34:19.549Z,98601.41
2023-10-07T06:35:28.413Z,98587.53
2023-10-07T06:36:38.871Z,98579.50
2023-10-07T06:37:44.280Z,98577.06
2023-10-07T06:38:55.327Z,98577.94
2023-10-07T06:40:02.630Z,98584.22
2023-10-07T06:41:11.550Z,98575.22
2023-10-07T06:42:13.848Z,98565.00
2023-10-07T06:43:17.447Z,98567.38
2023-10-07T06:44:19.382Z,98552.78
2023-10-07T06:45:22.159Z,98556.81
2023-10-07T06:46:24.310Z,98547.41
2023-10-07T06:47:30.948Z,98551.75
2023-10-07T06:48:35.184Z,98540.41
2023-10-07T06:49:41.000Z,98545.50
2023-10-07T06:50:44.600Z,98532.66
2023-10-07T06:51:52.033Z,98528.78
2023-10-07T06:52:56.855Z,98524.13
2023-10-07T06:54:02.147Z,98518.59
2023-10-07T06:55:11.356Z,98503.34
2023-10-07T06:56:22.265Z,98503.78
2023-10-07T06:57:29.423Z,98508.44
2023-10-07T06:58:31.520Z,98497.13
2023-10-07T06:59:35.882Z,98502.56
2023-10-07T07:00:48.975Z,98493.19
2023-10-07T07:01:55.392Z,98497.47
2023-10-07T07:03:00.577Z,98489.19
2023-10-07T07:04:17.901Z,98490.31
2023-10-07T07:05:20.071Z,98483.31
2023-10-07T07:06:35.203Z,98480.59
2023-10-07T07:07:39.535Z,98474.31
2023-10-07T07:08:42.102Z,98470.06
2023-10-07T07:09:48.822Z,98466.13
2023-10-07T07:10:58.785Z,98475.56
2023-10-07T07:12:12.677Z,98465.81
2023-10-07T07:13:18.787Z,98471.66
2023-10-07T07:14:20.844Z,98463.78
2023-10-07T07:15:29.426Z,98455.59
2023-10-07T07:16:42.936Z,98442.63
2023-10-07T07:17:45.361Z,98436.31
2023-10-07T07:18:48.573Z,98439.47
2023-10-07T07:20:12.353Z,98429.28
2023-10-07T07:21:33.089Z,98429.28
2023-10-07T07:22:39.954Z,98426.81
2023-10-07T07:23:46.476Z,98422.88
2023-10-07T07:24:50.440Z,98414.34
2023-10-07T07:26:13.208Z,98413.56
2023-10-07T07:27:18.451Z,98414.03
2023-10-07T07:28:20.675Z,98409.69
2023-10-07T07:29:33.452Z,98401.03
2023-10-07T07:30:37.053Z,98403.41
2023-10-07T07:31:39.972Z,98390.88
2023-10-07T07:32:42.151Z,98391.69
2023-10-07T07:33:44.180Z,98390.88
2023-10-07T07:34:46.225Z,98382.66
2023-10-07T07:35:52.513Z,98381.44
2023-10-07T07:37:03.975Z,98371.28
2023-10-07T07:38:32.155Z,98373.31
2023-10-07T07:39:34.576Z,98358.00
2023-10-07T07:40:37.441Z,98357.19
2023-10-07T07:41:55.363Z,98351.75
2023-10-07T07:42:57.572Z,98340.03
2023-10-07T07:44:02.082Z,98333.00
2023-10-07T07:45:16.404Z,98340.84
2023-10-07T07:46:20.573Z,98340.84
2023-10-07T07:47:23.904Z,98331.06
2023-10-07T07:48:26.563Z,98327.13
2023-10-07T07:49:29.788Z,98318.88
2023-10-07T07:50:36.632Z,98320.88
2023-10-07T07:51:39.015Z,98311.47
2023-10-07T07:52:42.406Z,98312.28
2023-10-07T07:53:46.091Z,98304.47
2023-10-07T07:54:47.992Z,98303.28
2023-10-07T07:55:50.446Z,98293.50
2023-10-07T07:56:53.411Z,98289.97
2023-10-07T07:57:56.004Z,98288.41
2023-10-07T07:58:57.848Z,98287.97
2023-10-07T07:59:59.982Z,98277.47
2023-10-07T08:01:05.957Z,98274.34
2023-10-07T08:02:14.623Z,98273.16
2023-10-07T08:03:17.900Z,98263.75
2023-10-07T08:04:41.904Z,98267.69
2023-10-07T08:05:48.428Z,98261.81
2023-10-07T08:06:52.752Z,98262.19
2023-10-07T08:07:56.559Z,98254.78
2023-10-07T08:08:58.804Z,98252.81
2023-10-07T08:10:05.076Z,98250.44
2023-10-07T08:11:08.902Z,98252.44
2023-10-07T08:12:12.416Z,98237.56
2023-10-07T08:13:18.664Z,98225.84
2023-10-07T08:14:23.454Z,98209.38
2023-10-07T08:15:25.838Z,98219.16
2023-10-07T08:16:27.916Z,98196.84
2023-10-07T08:17:30.409Z,98195.28
2023-10-07T08:18:35.393Z,98196.09
2023-10-07T08:19:39.416Z,98186.69
2023-10-07T08:20:47.606Z,98191.00
2023-10-07T08:21:53.604Z,98175.75
2023-10-07T08:22:56.219Z,98172.22
2023-10-07T08:24:03.637Z,98183.56
2023-10-07T08:25:11.212Z,98169.09
2023-10-07T08:26:14.212Z,98153.81
2023-10-07T08:27:38.214Z,98149.91
2023-10-07T08:28:43.280Z,98145.22
2023-10-07T08:29:46.607Z,98147.56
2023-10-07T08:30:49.397Z,98140.53
2023-10-07T08:31:51.774Z,98126.44
2023-10-07T08:32:56.689Z,98119.41
2023-10-07T08:34:25.603Z,98110.38
2023-10-07T08:35:29.401Z,98101.00
2023-10-07T08:36:48.866Z,98095.91
2023-10-07T08:37:51.919Z,98084.56
2023-10-07T08:38:54.662Z,98083.00
2023-10-07T08:40:00.755Z,98076.34
2023-10-07T08:41:07.940Z,98075.19
2023-10-07T08:42:15.498Z,98081.84
2023-10-07T08:43:27.213Z,98078.31
2023-10-07T08:44:33.445Z,98075.59
2023-10-07T08:45:43.008Z,98061.50
2023-10-07T08:47:05.267Z,98072.06
2023-10-07T08:48:18.959Z,98077.53
2023-10-07T08:49:32.179Z,98073.59
2023-10-07T08:50:44.707Z,98074.78
2023-10-07T08:51:47.597Z,98063.06
2023-10-07T08:52:58.137Z,98057.16
2023-10-07T08:54:10.652Z,98061.47
2023-10-07T08:55:13.010Z,98066.94
2023-10-07T08:56:21.342Z,98052.84
2023-10-07T08:57:25.143Z,98041.88
2023-10-07T08:58:32.507Z,98028.56
2023-10-07T08:59:37.416Z,98036.75
2023-10-07T09:00:46.752Z,98028.59
2023-10-07T09:01:58.540Z,98030.09
2023-10-07T09:03:01.462Z,98031.69
2023-10-07T09:04:09.124Z,98015.66
2023-10-07T09:05:18.030Z,98001.19
2023-10-07T09:06:21.869Z,98008.19
2023-10-07T09:07:24.195Z,98007.78
2023-10-07T09:08:31.904Z,98003.50
2023-10-07T09:09:41.581Z,98009.00
2023-10-07T09:10:46.976Z,97988.19
2023-10-07T09:11:53.003Z,97992.13
2023-10-07T09:13:05.147Z,97978.38
2023-10-07T09:14:12.103Z,97984.31
2023-10-07T09:15:22.766Z,97978.38
2023-10-07T09:16:26.449Z,97972.91
2023-10-07T09:17:28.496Z,97972.91
2023-10-07T09:18:43.822Z,97958.00
2023-10-07T09:19:50.077Z,97956.41
2023-10-07T09:21:11.273Z,97950.94
2023-10-07T09:22:13.141Z,97948.59
2023-10-07T09:23:23.735Z,97947.00
2023-10-07T09:24:29.591Z,97932.03
2023-10-07T09:25:34.235Z,97929.69
2023-10-07T09:26:37.363Z,97937.53
2023-10-07T09:27:39.817Z,97951.25
2023-10-07T09:28:48.368Z,97943.84
2023-10-07T09:29:53.054Z,97929.69
2023-10-07T09:30:56.585Z,97917.53
2023-10-07T09:33:38.946Z,97916.28
2023-10-07T09:34:46.273Z,97917.88
2023-10-07T09:36:11.102Z,97913.59
2023-10-07T09:37:34.475Z,97904.56
2023-10-07T09:38:45.428Z,97891.59
2023-10-07T09:39:55.983Z,97884.13
2023-10-07T09:40:58.543Z,97886.53
2023-10-07T09:42:05.592Z,97871.59
2023-10-07T09:43:11.906Z,97874.72
2023-10-07T09:44:29.853Z,97864.13
2023-10-07T09:45:35.563Z,97875.44
2023-10-07T09:46:43.044Z,97884.03
2023-10-07T09:47:49.043Z,97881.03
2023-10-07T09:48:55.157Z,97864.56
2023-10-07T09:50:00.056Z,97855.13
2023-10-07T09:51:24.541Z,97845.75
2023-10-07T09:52:33.861Z,97833.19
2023-10-07T09:54:20.815Z,97839.84
2023-10-07T09:55:23.831Z,97837.91
2023-10-07T09:56:47.151Z,97834.38
2023-10-07T09:58:00.337Z,97826.16
2023-10-07T09:59:18.521Z,97822.97
2023-10-07T10:00:41.618Z,97819.41
2023-10-07T10:02:17.951Z,97802.56
2023-10-07T10:04:07.364Z,97795.50
2023-10-07T10:05:30.491Z,97788.44
2023-10-07T10:06:53.908Z,97795.44
2023-10-07T10:08:12.344Z,97788.34
2023-10-07T10:09:16.091Z,97772.25
2023-10-07T10:10:18.700Z,97771.50
2023-10-07T10:11:45.256Z,97781.28
2023-10-07T10:13:03.629Z,97765.66
2023-10-07T10:14:20.848Z,97757.69
2023-10-07T10:15:39.539Z,97756.59
2023-10-07T10:16:48.463Z,97747.50
2023-10-07T10:17:54.676Z,97760.03
2023-10-07T10:19:23.177Z,97732.94
2023-10-07T10:20:43.665Z,97736.53
2023-10-07T10:21:45.726Z,97738.81
2023-10-07T10:23:02.627Z,97739.53
2023-10-07T10:24:05.010Z,97728.06
2023-10-07T10:25:27.125Z,97726.84
2023-10-07T10:26:34.698Z,97715.25
2023-10-07T10:27:45.846Z,97711.63
2023-10-07T10:29:01.957Z,97704.41
2023-10-07T10:30:06.722Z,97710.38
2023-10-07T10:31:20.699Z,97695.88
2023-10-07T10:32:30.475Z,97692.63
2023-10-07T10:33:34.260Z,97689.88
2023-10-07T10:34:36.758Z,97677.97
2023-10-07T10:35:41.878Z,97682.66
2023-10-07T10:36:45.215Z,97672.81
2023-10-07T10:37:55.998Z,97664.56
2023-10-07T10:38:59.064Z,97659.75
2023-10-07T10:40:13.784Z,97650.00
2023-10-07T10:41:31.348Z,97648.75
2023-10-07T10:42:44.870Z,97643.97
2023-10-07T10:43:49.132Z,97638.38
2023-10-07T10:44:54.321Z,97635.16
2023-10-07T10:46:06.628Z,97627.22
2023-10-07T10:47:11.166Z,97621.31
2023-10-07T10:48:16.155Z,97616.19
2023-10-07T10:49:24.853Z,97617.03
2023-10-07T10:50:33.823Z,97618.44
2023-10-07T10:51:35.862Z,97609.13
2023-10-07T10:52:40.201Z,97605.91
2023-10-07T10:53:42.806Z,97591.72
2023-10-07T10:54:45.595Z,97598.69
2023-10-07T10:55:47.791Z,97584.88
2023-10-07T10:56:57.241Z,97590.63
2023-10-07T10:58:01.289Z,97592.53
2023-10-07T10:59:03.265Z,97585.25
2023-10-07T11:00:17.657Z,97587.50
2023-10-07T11:01:21.274Z,97581.06
2023-10-07T11:02:26.288Z,97584.63
2023-10-07T11:03:29.145Z,97577.94
2023-10-07T11:04:33.095Z,97570.88
2023-10-07T11:05:35.453Z,97569.91
2023-10-07T11:06:38.581Z,97568.44
2023-10-07T11:07:42.152Z,97569.09
2023-10-07T11:08:46.124Z,97555.81
2023-10-07T11:09:49.881Z,97557.38
2023-10-07T11:10:58.476Z,97551.47
2023-10-07T11:12:10.220Z,97545.97
2023-10-07T11:13:14.638Z,97542.78
2023-10-07T11:14:22.178Z,97550.91
2023-10-07T11:15:28.138Z,97534.53
2023-10-07T11:16:31.821Z,97532.16
2023-10-07T11:17:34.417Z,97526.28
2023-10-07T11:18:48.447Z,97529.75
2023-10-07T11:32:36.616Z,97483.22
2023-10-07T11:34:04.472Z,97476.88
2023-10-07T11:35:29.221Z,97469.81
2023-10-07T11:42:17.990Z,97441.13
2023-10-07T11:45:13.301Z,97428.59
2023-10-07T11:46:24.836Z,97424.06
2023-10-07T11:47:28.643Z,97424.50
2023-10-07T11:48:32.020Z,97421.56
2023-10-07T11:49:36.190Z,97421.25
2023-10-07T11:50:40.827Z,97409.28
2023-10-07T11:51:43.072Z,97405.41
2023-10-07T11:52:45.974Z,97406.09
2023-10-07T11:53:47.962Z,97396.75
2023-10-07T11:54:50.679Z,97398.56
2023-10-07T11:55:53.270Z,97401.38
2023-10-07T11:56:55.609Z,97389.28
2023-10-07T11:58:01.087Z,97396.31
2023-10-07T11:59:04.120Z,97382.41
2023-10-07T12:00:17.487Z,97379.88
2023-10-07T12:01:21.831Z,97375.44
2023-10-07T12:02:24.145Z,97379.13
2023-10-07T12:03:26.954Z,97371.56
2023-10-07T12:04:29.369Z,97381.28
2023-10-07T12:05:32.779Z,97373.28
2023-10-07T12:06:35.116Z,97362.81
2023-10-07T12:07:39.733Z,97367.94
2023-10-07T12:08:44.246Z,97354.00
2023-10-07T12:09:48.651Z,97362.78
2023-10-07T12:10:54.903Z,97358.22
2023-10-07T12:12:00.162Z,97361.06
2023-10-07T12:13:08.358Z,97358.06
2023-10-07T12:14:10.968Z,97356.94
2023-10-07T12:15:17.081Z,97349.38
2023-10-07T12:16:19.118Z,97338.25
2023-10-07T12:17:22.211Z,97329.59
2023-10-07T12:18:24.270Z,97325.88
2023-10-07T12:19:26.924Z,97324.59
2023-10-07T12:20:29.908Z,97330.63
2023-10-07T12:21:35.971Z,97325.97
2023-10-07T12:22:38.606Z,97317.19
2023-10-07T12:23:46.561Z,97322.69
2023-10-07T12:24:48.424Z,97315.38
2023-10-07T12:25:51.106Z,97315.91
2023-10-07T12:26:52.929Z,97309.69
2023-10-07T12:27:56.210Z,97306.81
2023-10-07T12:28:59.984Z,97304.38
2023-10-07T12:30:01.931Z,97307.66
2023-10-07T12:31:14.575Z,97303.25
2023-10-07T12:32:17.585Z,97299.97
2023-10-07T12:33:33.287Z,97290.06
2023-10-07T12:34:38.898Z,97293.25
2023-10-07T12:35:42.290Z,97299.41
2023-10-07T12:36:44.372Z,97283.13
2023-10-07T12:37:53.245Z,97282.44
2023-10-07T12:38:55.616Z,97277.63
2023-10-07T12:39:58.229Z,97267.38
2023-10-07T12:41:08.242Z,97260.00
2023-10-07T12:42:11.122Z,97262.78
2023-10-07T12:43:14.558Z,97262.34
2023-10-07T12:44:18.280Z,97253.25
2023-10-07T12:45:20.864Z,97249.91
2023-10-07T12:46:22.791Z,97247.16
2023-10-07T12:47:25.963Z,97240.94
2023-10-07T12:48:28.261Z,97238.97
2023-10-07T12:49:31.556Z,97227.31
2023-10-07T12:50:34.873Z,97231.81
2023-10-07T12:51:45.135Z,97223.78
2023-10-07T12:52:51.244Z,97227.75
2023-10-07T12:53:58.137Z,97215.63
2023-10-07T12:54:59.919Z,97217.31
2023-10-07T12:56:20.982Z,97206.97
2023-10-07T12:57:23.236Z,97204.44
2023-10-07T12:58:28.227Z,97195.97
2023-10-07T12:59:36.808Z,97198.38
2023-10-07T13:00:38.915Z,97197.09
2023-10-07T13:01:40.740Z,97197.94
2023-10-07T13:02:45.438Z,97190.47
2023-10-07T13:03:48.877Z,97185.84
2023-10-07T13:04:55.945Z,97182.75
2023-10-07T13:06:02.556Z,97173.50
2023-10-07T13:07:15.246Z,97173.28
2023-10-07T13:08:17.315Z,97162.16
2023-10-07T13:09:21.737Z,97172.50
2023-10-07T13:10:24.669Z,97160.50
2023-10-07T13:11:30.159Z,97151.78
2023-10-07T13:16:14.072Z,97140.22
2023-10-07T13:17:16.906Z,97136.25
2023-10-07T13:18:20.167Z,97136.91
2023-10-07T13:19:27.443Z,97130.97
2023-10-07T13:20:30.401Z,97126.75
2023-10-07T13:21:38.504Z,97139.44
2023-10-07T13:22:43.575Z,97129.09
2023-10-07T13:23:49.144Z,97127.00
2023-10-07T13:24:54.833Z,97121.16
2023-10-07T13:25:59.355Z,97118.06
2023-10-07T13:27:08.065Z,97125.22
2023-10-07T13:28:11.457Z,97113.75
2023-10-07T13:29:13.685Z,97107.03
2023-10-07T13:30:19.885Z,97104.72
2023-10-07T13:31:33.410Z,97094.06
2023-10-07T13:32:41.184Z,97092.81
2023-10-07T13:33:48.177Z,97098.00
2023-10-07T13:34:54.770Z,97090.72
2023-10-07T13:36:00.615Z,97095.00
2023-10-07T13:37:07.474Z,97084.78
2023-10-07T13:38:27.338Z,97076.72
2023-10-07T13:39:35.700Z,97076.59
2023-10-07T13:40:39.372Z,97069.75
2023-10-07T13:41:44.878Z,97071.19
2023-10-07T13:42:49.124Z,97064.03
2023-10-07T13:43:53.271Z,97068.91
2023-10-07T13:44:56.177Z,97068.66
2023-10-07T13:45:58.624Z,97059.53
2023-10-07T13:47:01.603Z,97054.78
2023-10-07T13:48:04.952Z,97045.94
2023-10-07T13:49:10.377Z,97055.34
2023-10-07T13:50:16.690Z,97044.31
2023-10-07T13:51:40.456Z,97039.56
2023-10-07T13:52:51.922Z,97037.91
2023-10-07T13:54:14.791Z,97036.03
2023-10-07T13:55:41.727Z,97032.72
2023-10-07T13:56:49.511Z,97029.97
2023-10-07T13:57:59.491Z,97025.09
2023-10-07T13:59:06.585Z,97029.59
2023-10-07T14:00:28.940Z,97024.28
2023-10-07T14:01:32.396Z,97016.38
2023-10-07T14:02:34.523Z,97013.59
2023-10-07T14:03:42.598Z,97018.44
2023-10-07T14:04:50.845Z,97010.72
2023-10-07T14:06:15.998Z,97002.69
2023-10-07T14:07:25.714Z,97010.16
2023-10-07T14:08:32.982Z,97004.97
2023-10-07T14:09:39.296Z,96992.28
2023-10-07T14:10:41.927Z,96997.50
2023-10-07T14:11:46.182Z,96997.16
2023-10-07T14:12:48.434Z,96987.56
2023-10-07T14:13:50.383Z,96982.03
2023-10-07T14:14:54.149Z,96992.75
2023-10-07T14:16:10.246Z,96985.44
2023-10-07T14:17:21.695Z,96986.91
2023-10-07T14:21:48.502Z,96967.69
2023-10-07T14:22:51.364Z,96968.19
2023-10-07T14:23:54.661Z,96968.97
2023-10-07T14:24:58.780Z,96966.50
2023-10-07T14:26:10.648Z,96960.50
2023-10-07T14:27:13.237Z,96972.03
2023-10-07T14:28:15.099Z,96963.06
2023-10-07T14:29:17.104Z,96946.91
2023-10-07T14:30:20.216Z,96952.97
2023-10-07T14:31:23.709Z,96948.03
2023-10-07T14:32:25.729Z,96952.03
2023-10-07T14:33:27.808Z,96955.56
2023-10-07T14:34:29.741Z,96945.63
2023-10-07T14:35:37.406Z,96943.31
2023-10-07T14:36:42.895Z,96935.28
2023-10-07T14:37:46.666Z,96945.28
2023-10-07T14:38:50.197Z,96947.28
2023-10-07T14:39:57.649Z,96939.50
2023-10-07T14:41:00.449Z,96936.88
2023-10-07T14:42:02.482Z,96936.88
2023-10-07T14:43:05.667Z,96936.63
2023-10-07T14:44:07.984Z,96928.81
2023-10-07T14:45:10.920Z,96923.41
2023-10-07T14:46:13.317Z,96932.56
2023-10-07T14:47:15.724Z,96918.66
2023-10-07T14:48:18.487Z,96922.38
2023-10-07T14:49:20.542Z,96912.41
2023-10-07T14:50:22.539Z,96916.47
2023-10-07T14:51:24.422Z,96916.31
2023-10-07T14:52:26.404Z,96914.03
2023-10-07T14:53:32.677Z,96906.69
2023-10-07T14:54:35.154Z,96898.09
2023-10-07T14:55:37.127Z,96906.56
2023-10-07T14:56:42.931Z,96900.25
2023-10-07T14:57:45.810Z,96890.47
2023-10-07T14:58:50.098Z,96882.81
2023-10-07T14:59:52.607Z,96887.13
2023-10-07T15:00:55.446Z,96882.25
2023-10-07T15:01:58.344Z,96881.47
2023-10-07T15:03:02.484Z,96873.66
2023-10-07T15:04:04.703Z,96879.78
2023-10-07T15:05:09.305Z,96871.22
2023-10-07T15:06:15.805Z,96866.44
2023-10-07T15:07:18.623Z,96869.53
2023-10-07T15:08:20.513Z,96870.94
2023-10-07T15:09:22.874Z,96879.06
2023-10-07T15:10:29.317Z,96862.81
2023-10-07T15:11:31.617Z,96865.28
2023-10-07T15:12:33.679Z,96862.34
2023-10-07T15:13:38.535Z,96860.19
2023-10-07T15:14:41.943Z,96859.47
2023-10-07T15:15:50.482Z,96858.34
2023-10-07T15:16:52.520Z,96850.75
2023-10-07T15:17:56.357Z,96846.44
2023-10-07T15:18:58.337Z,96860.44
2023-10-07T15:20:01.231Z,96851.38
2023-10-07T15:21:06.657Z,96837.25
2023-10-07T15:22:08.713Z,96835.13
2023-10-07T15:23:10.855Z,96835.59
2023-10-07T15:24:14.787Z,96825.75
2023-10-07T15:25:17.370Z,96836.66
2023-10-07T15:26:20.200Z,96831.44
2023-10-07T15:27:27.675Z,96822.88
2023-10-07T15:28:33.184Z,96819.19
2023-10-07T15:29:38.084Z,96820.72
2023-10-07T15:30:50.855Z,96821.03
2023-10-07T15:32:06.375Z,96815.63
2023-10-07T15:34:07.743Z,96806.00
2023-10-07T15:35:09.879Z,96800.75
2023-10-07T15:36:12.452Z,96796.00
2023-10-07T15:37:14.376Z,96802.00
2023-10-07T15:38:18.443Z,96800.63
2023-10-07T15:39:22.530Z,96794.94
2023-10-07T15:40:24.985Z,96789.69
2023-10-07T15:41:27.158Z,96790.00
2023-10-07T15:42:31.371Z,96786.16
2023-10-07T15:43:33.486Z,96781.41
2023-10-07T15:44:35.828Z,96772.34
2023-10-07T15:45:51.425Z,96783.88
2023-10-07T15:46:57.164Z,96767.28
2023-10-07T15:47:59.089Z,96768.38
2023-10-07T15:49:11.839Z,96767.75
2023-10-07T15:50:16.918Z,96760.84
2023-10-07T15:51:19.396Z,96765.28
2023-10-07T15:52:24.249Z,96756.22
2023-10-07T15:53:33.667Z,96761.16
2023-10-07T15:54:40.125Z,96748.41
2023-10-07T15:55:45.738Z,96761.78
2023-10-07T15:56:51.136Z,96756.84
2023-10-07T15:57:54.181Z,96740.84
2023-10-07T15:58:56.736Z,96739.16
2023-10-07T16:00:01.163Z,96743.78
2023-10-07T16:01:04.478Z,96737.81
2023-10-07T16:02:09.368Z,96745.16
2023-10-07T16:03:13.628Z,96739.50